createdAt,value
2017-04-02T00:00:29.651Z,0
2017-04-02T00:01:39.896Z,0
2017-04-02T00:02:49.835Z,0
2017-04-02T00:04:00.080Z,0
2017-04-02T00:05:10.318Z,0
2017-04-02T00:06:20.565Z,0
2017-04-02T00:07:30.810Z,0
2017-04-02T00:08:40.735Z,0
2017-04-02T00:09:50.977Z,0
2017-04-02T00:11:01.226Z,0
2017-04-02T00:12:11.470Z,0
2017-04-02T00:13:21.397Z,0
2017-04-02T00:14:31.661Z,0
2017-04-02T00:15:41.279Z,0
2017-04-02T00:16:51.519Z,0
2017-04-02T00:18:01.452Z,0
2017-04-02T00:19:11.694Z,0
2017-04-02T00:20:21.932Z,0
2017-04-02T00:21:32.176Z,0
2017-04-02T00:22:42.106Z,0
2017-04-02T00:23:52.347Z,0
2017-04-02T00:25:02.587Z,0
2017-04-02T00:26:12.824Z,0
2017-04-02T00:27:23.058Z,0
2017-04-02T00:28:32.989Z,0
2017-04-02T00:29:43.233Z,0
2017-04-02T00:30:53.171Z,0
2017-04-02T00:32:02.786Z,0
2017-04-02T00:33:12.720Z,0
2017-04-02T00:34:22.656Z,0
2017-04-02T00:35:32.903Z,0
2017-04-02T00:36:42.832Z,0
2017-04-02T00:37:52.133Z,0
2017-04-02T00:39:02.063Z,0
2017-04-02T00:40:12.038Z,0
2017-04-02T00:41:21.966Z,0
2017-04-02T00:42:31.904Z,0
2017-04-02T00:43:41.828Z,0
2017-04-02T00:44:52.074Z,0
2017-04-02T00:46:02.321Z,0
2017-04-02T00:47:12.258Z,0
2017-04-02T00:48:22.498Z,0
2017-04-02T00:49:32.426Z,0
2017-04-02T00:50:42.041Z,0
2017-04-02T00:51:52.280Z,0
2017-04-02T00:53:02.526Z,0
2017-04-02T00:54:12.766Z,0
2017-04-02T00:55:23.008Z,0
2017-04-02T00:56:32.942Z,0
2017-04-02T00:57:43.213Z,0
2017-04-02T00:58:53.452Z,0
2017-04-02T01:00:03.374Z,0
2017-04-02T01:01:13.310Z,0
2017-04-02T01:02:23.240Z,0
2017-04-02T01:03:32.854Z,0
2017-04-02T01:04:43.088Z,0
2017-04-02T01:05:53.018Z,0
2017-04-02T01:07:02.642Z,0
2017-04-02T01:08:12.260Z,0
2017-04-02T01:09:22.499Z,0
2017-04-02T01:10:32.433Z,0
2017-04-02T01:11:42.362Z,0
2017-04-02T01:12:52.601Z,0
2017-04-02T01:14:02.527Z,0
2017-04-02T01:15:12.450Z,0
2017-04-02T01:16:22.389Z,0
2017-04-02T01:17:32.629Z,0
2017-04-02T01:18:42.558Z,0
2017-04-02T01:19:52.489Z,0
2017-04-02T01:21:02.417Z,0
2017-04-02T01:22:12.362Z,0
2017-04-02T01:23:22.294Z,0
2017-04-02T01:24:32.219Z,0
2017-04-02T01:25:42.151Z,0
2017-04-02T01:26:52.391Z,0
2017-04-02T01:28:02.629Z,0
2017-04-02T01:29:12.560Z,0
2017-04-02T01:30:22.802Z,0
2017-04-02T01:31:33.076Z,0
2017-04-02T01:32:43.321Z,0
2017-04-02T01:33:53.570Z,0
2017-04-02T01:35:03.808Z,0
2017-04-02T01:36:14.054Z,0
2017-04-02T01:37:24.296Z,0
2017-04-02T01:38:34.221Z,0
2017-04-02T01:39:44.146Z,0
2017-04-02T01:40:54.395Z,0
2017-04-02T01:42:04.636Z,0
2017-04-02T01:43:14.872Z,0
2017-04-02T01:44:25.117Z,0
2017-04-02T01:45:35.358Z,0
2017-04-02T01:46:45.290Z,0
2017-04-02T01:47:55.535Z,0
2017-04-02T01:49:05.792Z,0
2017-04-02T01:50:16.035Z,0
2017-04-02T01:51:25.965Z,0
2017-04-02T01:52:36.210Z,0
2017-04-02T01:53:46.450Z,0
2017-04-02T01:54:56.694Z,0
2017-04-02T01:56:06.312Z,0
2017-04-02T01:57:16.241Z,0
2017-04-02T01:58:26.176Z,0
2017-04-02T01:59:36.425Z,0
2017-04-02T02:00:46.661Z,0
2017-04-02T02:01:56.282Z,0
2017-04-02T02:03:06.524Z,0
2017-04-02T02:04:16.447Z,0
2017-04-02T02:05:26.687Z,0
2017-04-02T02:06:36.931Z,0
2017-04-02T02:07:46.546Z,0
2017-04-02T02:08:56.787Z,0
2017-04-02T02:10:07.025Z,0
2017-04-02T02:11:17.272Z,0
2017-04-02T02:12:27.518Z,0
2017-04-02T02:13:37.132Z,0
2017-04-02T02:14:47.371Z,0
2017-04-02T02:15:57.614Z,0
2017-04-02T02:17:07.853Z,0
2017-04-02T02:18:18.090Z,0
2017-04-02T02:19:28.021Z,0
2017-04-02T02:20:37.648Z,0
2017-04-02T02:21:47.893Z,0
2017-04-02T02:22:58.133Z,0
2017-04-02T02:24:07.751Z,0
2017-04-02T02:25:17.376Z,0
2017-04-02T02:26:27.644Z,0
2017-04-02T02:27:37.573Z,0
2017-04-02T02:28:47.812Z,0
2017-04-02T02:29:58.050Z,0
2017-04-02T02:31:08.292Z,0
2017-04-02T02:32:18.542Z,0
2017-04-02T02:33:28.783Z,0
2017-04-02T02:34:39.036Z,0
2017-04-02T02:35:49.275Z,0
2017-04-02T02:36:59.554Z,0
2017-04-02T02:38:09.172Z,0
2017-04-02T02:39:19.432Z,0
2017-04-02T02:40:29.676Z,0
2017-04-02T02:41:39.331Z,0
2017-04-02T02:42:49.258Z,0
2017-04-02T02:43:59.195Z,0
2017-04-02T02:45:09.444Z,0
2017-04-02T02:46:19.683Z,0
2017-04-02T02:47:29.651Z,0
2017-04-02T02:48:39.573Z,0
2017-04-02T02:49:49.501Z,0
2017-04-02T02:50:59.737Z,0
2017-04-02T02:52:09.984Z,0
2017-04-02T02:53:20.230Z,0
2017-04-02T02:54:30.470Z,0
2017-04-02T02:55:40.726Z,0
2017-04-02T02:56:50.975Z,0
2017-04-02T02:58:01.215Z,0
2017-04-02T02:59:11.452Z,0
2017-04-02T03:00:21.379Z,0
2017-04-02T03:01:31.307Z,0
2017-04-02T03:02:41.575Z,0
2017-04-02T03:03:51.810Z,0
2017-04-02T03:05:02.057Z,0
2017-04-02T03:06:11.989Z,0
2017-04-02T03:07:21.919Z,0
2017-04-02T03:08:31.849Z,0
2017-04-02T03:09:41.783Z,0
2017-04-02T03:10:51.404Z,0
2017-04-02T03:12:01.649Z,0
2017-04-02T03:13:10.949Z,0
2017-04-02T03:14:20.878Z,0
2017-04-02T03:15:31.122Z,0
2017-04-02T03:16:41.370Z,0
2017-04-02T03:17:51.302Z,0
2017-04-02T03:19:01.551Z,0
2017-04-02T03:20:11.789Z,0
2017-04-02T03:21:22.058Z,0
2017-04-02T03:22:32.314Z,0
2017-04-02T03:23:42.547Z,0
2017-04-02T03:24:52.478Z,0
2017-04-02T03:26:02.717Z,0
2017-04-02T03:27:12.637Z,0
2017-04-02T03:28:22.889Z,0
2017-04-02T03:29:33.125Z,0
2017-04-02T03:30:42.741Z,0
2017-04-02T03:31:52.983Z,0
2017-04-02T03:33:03.222Z,0
2017-04-02T03:34:13.148Z,0
2017-04-02T03:35:23.077Z,0
2017-04-02T03:36:33.316Z,0
2017-04-02T03:37:42.930Z,0
2017-04-02T03:38:52.924Z,0
2017-04-02T03:40:02.849Z,0
2017-04-02T03:41:12.781Z,0
2017-04-02T03:42:22.396Z,0
2017-04-02T03:43:32.676Z,0
2017-04-02T03:44:42.922Z,0
2017-04-02T03:45:52.853Z,0
2017-04-02T03:47:03.096Z,0
2017-04-02T03:48:13.031Z,0
2017-04-02T03:49:23.268Z,0
2017-04-02T03:50:32.919Z,0
2017-04-02T03:51:42.529Z,0
2017-04-02T03:52:52.459Z,0
2017-04-02T03:54:02.730Z,0
2017-04-02T03:55:12.657Z,0
2017-04-02T03:56:22.583Z,0
2017-04-02T03:57:32.194Z,0
2017-04-02T03:58:42.431Z,0
2017-04-02T03:59:52.366Z,0
2017-04-02T04:01:02.336Z,0
2017-04-02T04:02:12.576Z,0
2017-04-02T04:03:22.188Z,0
2017-04-02T04:04:32.437Z,0
2017-04-02T04:05:42.364Z,0
2017-04-02T04:06:52.291Z,0
2017-04-02T04:08:02.222Z,0
2017-04-02T04:09:12.157Z,0
2017-04-02T04:10:22.402Z,0
2017-04-02T04:11:32.018Z,0
2017-04-02T04:12:42.260Z,0
2017-04-02T04:13:52.194Z,0
2017-04-02T04:15:02.150Z,0
2017-04-02T04:16:12.389Z,0
2017-04-02T04:17:22.311Z,0
2017-04-02T04:18:32.232Z,0
2017-04-02T04:19:42.160Z,0
2017-04-02T04:20:52.089Z,0
2017-04-02T04:22:02.335Z,0
2017-04-02T04:23:12.256Z,0
2017-04-02T04:24:22.190Z,0
2017-04-02T04:25:32.125Z,0
2017-04-02T04:26:42.368Z,0
2017-04-02T04:27:52.292Z,0
2017-04-02T04:29:01.908Z,0
2017-04-02T04:30:12.151Z,0
2017-04-02T04:31:21.809Z,0
2017-04-02T04:32:32.066Z,0
2017-04-02T04:33:42.306Z,0
2017-04-02T04:34:52.555Z,0
2017-04-02T04:36:02.796Z,0
2017-04-02T04:37:13.060Z,0
2017-04-02T04:38:23.301Z,0
2017-04-02T04:39:32.915Z,0
2017-04-02T04:40:43.150Z,0
2017-04-02T04:41:53.085Z,0
2017-04-02T04:43:03.006Z,0
2017-04-02T04:44:13.248Z,0
2017-04-02T04:45:23.503Z,0
2017-04-02T04:46:33.449Z,0
2017-04-02T04:47:42.746Z,0
2017-04-02T04:48:52.991Z,0
2017-04-02T04:50:02.921Z,0
2017-04-02T04:51:13.165Z,0
2017-04-02T04:52:23.411Z,0
2017-04-02T04:53:33.658Z,0
2017-04-02T04:54:43.588Z,0
2017-04-02T04:55:53.525Z,0
2017-04-02T04:57:03.766Z,0
2017-04-02T04:58:14.007Z,0
2017-04-02T04:59:23.935Z,0
2017-04-02T05:00:34.176Z,0
2017-04-02T05:01:44.109Z,0
2017-04-02T05:02:54.038Z,0
2017-04-02T05:04:03.965Z,4
2017-04-02T05:05:13.891Z,4
2017-04-02T05:06:24.142Z,4
2017-04-02T05:07:33.774Z,4
2017-04-02T05:08:44.026Z,4
2017-04-02T05:09:54.273Z,4
2017-04-02T05:11:04.528Z,0
2017-04-02T05:12:14.144Z,0
2017-04-02T05:13:24.080Z,0
2017-04-02T05:14:34.323Z,0
2017-04-02T05:15:44.562Z,0
2017-04-02T05:16:54.810Z,4
2017-04-02T05:18:04.741Z,4
2017-04-02T05:19:14.667Z,4
2017-04-02T05:20:24.609Z,4
2017-04-02T05:21:33.922Z,4
2017-04-02T05:22:43.578Z,0
2017-04-02T05:23:53.505Z,0
2017-04-02T05:25:03.748Z,0
2017-04-02T05:26:13.997Z,0
2017-04-02T05:27:23.935Z,0
2017-04-02T05:28:33.857Z,0
2017-04-02T05:29:44.137Z,0
2017-04-02T05:30:54.395Z,0
2017-04-02T05:32:04.635Z,0
2017-04-02T05:33:13.620Z,0
2017-04-02T05:34:23.860Z,0
2017-04-02T05:35:34.103Z,4
2017-04-02T05:36:44.348Z,4
2017-04-02T05:37:54.637Z,4
2017-04-02T05:39:04.876Z,4
2017-04-02T05:40:15.128Z,4
2017-04-02T05:41:25.056Z,4
2017-04-02T05:42:35.295Z,4
2017-04-02T05:43:45.230Z,0
2017-04-02T05:44:55.193Z,0
2017-04-02T05:46:05.433Z,4
2017-04-02T05:47:15.048Z,4
2017-04-02T05:48:24.977Z,4
2017-04-02T05:49:34.588Z,4
2017-04-02T05:50:44.822Z,4
2017-04-02T05:51:54.752Z,4
2017-04-02T05:53:04.685Z,4
2017-04-02T05:54:14.618Z,4
2017-04-02T05:55:24.556Z,4
2017-04-02T05:56:34.821Z,4
2017-04-02T05:57:44.747Z,4
2017-04-02T05:58:54.991Z,4
2017-04-02T06:00:04.923Z,4
2017-04-02T06:01:15.162Z,4
2017-04-02T06:02:25.401Z,4
2017-04-02T06:03:35.641Z,4
2017-04-02T06:04:45.583Z,8
2017-04-02T06:05:55.511Z,4
2017-04-02T06:07:05.441Z,4
2017-04-02T06:08:15.370Z,4
2017-04-02T06:09:25.298Z,4
2017-04-02T06:10:34.916Z,8
2017-04-02T06:11:44.537Z,8
2017-04-02T06:12:54.777Z,4
2017-04-02T06:14:05.016Z,8
2017-04-02T06:15:14.945Z,8
2017-04-02T06:16:24.561Z,8
2017-04-02T06:17:34.805Z,8
2017-04-02T06:18:45.036Z,4
2017-04-02T06:19:54.967Z,8
2017-04-02T06:21:05.208Z,8
2017-04-02T06:22:15.133Z,4
2017-04-02T06:23:25.374Z,8
2017-04-02T06:24:34.986Z,8
2017-04-02T06:25:45.253Z,8
2017-04-02T06:26:55.498Z,8
2017-04-02T06:28:05.114Z,8
2017-04-02T06:29:14.722Z,8
2017-04-02T06:30:24.964Z,12
2017-04-02T06:31:34.580Z,8
2017-04-02T06:32:44.507Z,12
2017-04-02T06:33:54.752Z,8
2017-04-02T06:35:05.002Z,12
2017-04-02T06:36:14.618Z,12
2017-04-02T06:37:24.241Z,8
2017-04-02T06:38:34.479Z,12
2017-04-02T06:39:44.718Z,8
2017-04-02T06:40:54.021Z,8
2017-04-02T06:42:03.646Z,8
2017-04-02T06:43:13.259Z,8
2017-04-02T06:44:23.188Z,8
2017-04-02T06:45:33.116Z,8
2017-04-02T06:46:43.046Z,12
2017-04-02T06:47:52.975Z,8
2017-04-02T06:49:02.592Z,8
2017-04-02T06:50:12.833Z,12
2017-04-02T06:51:22.760Z,8
2017-04-02T06:52:32.375Z,8
2017-04-02T06:53:42.319Z,8
2017-04-02T06:54:52.250Z,8
2017-04-02T06:56:02.208Z,12
2017-04-02T06:57:11.821Z,8
2017-04-02T06:58:22.065Z,12
2017-04-02T06:59:31.685Z,12
2017-04-02T07:00:41.314Z,12
2017-04-02T07:01:51.255Z,8
2017-04-02T07:03:01.495Z,12
2017-04-02T07:04:11.422Z,8
2017-04-02T07:05:21.348Z,12
2017-04-02T07:06:31.284Z,12
2017-04-02T07:07:41.218Z,8
2017-04-02T07:08:51.149Z,12
2017-04-02T07:10:01.434Z,12
2017-04-02T07:11:11.049Z,12
2017-04-02T07:12:21.286Z,12
2017-04-02T07:13:31.544Z,12
2017-04-02T07:14:41.794Z,12
2017-04-02T07:15:51.720Z,12
2017-04-02T07:17:01.653Z,8
2017-04-02T07:18:11.587Z,8
2017-04-02T07:19:21.202Z,12
2017-04-02T07:20:31.126Z,8
2017-04-02T07:21:41.393Z,12
2017-04-02T07:22:51.634Z,12
2017-04-02T07:24:01.566Z,12
2017-04-02T07:25:11.499Z,12
2017-04-02T07:26:20.813Z,12
2017-04-02T07:27:31.057Z,12
2017-04-02T07:28:40.989Z,16
2017-04-02T07:29:51.239Z,16
2017-04-02T07:31:01.170Z,12
2017-04-02T07:32:11.407Z,12
2017-04-02T07:33:21.343Z,8
2017-04-02T07:34:31.312Z,12
2017-04-02T07:35:41.242Z,8
2017-04-02T07:36:51.486Z,8
2017-04-02T07:38:01.726Z,8
2017-04-02T07:39:11.351Z,8
2017-04-02T07:40:21.287Z,4
2017-04-02T07:41:31.220Z,4
2017-04-02T07:42:41.461Z,4
2017-04-02T07:43:51.080Z,4
2017-04-02T07:45:01.004Z,4
2017-04-02T07:46:11.250Z,4
2017-04-02T07:47:20.871Z,8
2017-04-02T07:48:30.801Z,8
2017-04-02T07:49:41.041Z,8
2017-04-02T07:50:51.287Z,8
2017-04-02T07:52:01.531Z,12
2017-04-02T07:53:11.770Z,12
2017-04-02T07:54:21.701Z,12
2017-04-02T07:55:31.944Z,12
2017-04-02T07:56:41.886Z,8
2017-04-02T07:57:51.825Z,8
2017-04-02T07:59:02.070Z,12
2017-04-02T08:00:12.001Z,12
2017-04-02T08:01:22.244Z,16
2017-04-02T08:02:32.179Z,32
2017-04-02T08:03:42.106Z,28
2017-04-02T08:04:52.032Z,20
2017-04-02T08:06:01.655Z,16
2017-04-02T08:07:11.590Z,16
2017-04-02T08:08:21.838Z,16
2017-04-02T08:09:31.780Z,12
2017-04-02T08:10:41.396Z,16
2017-04-02T08:11:51.639Z,16
2017-04-02T08:13:01.562Z,28
2017-04-02T08:14:11.185Z,16
2017-04-02T08:15:21.429Z,24
2017-04-02T08:16:31.392Z,24
2017-04-02T08:17:41.001Z,16
2017-04-02T08:18:50.926Z,16
2017-04-02T08:20:00.885Z,16
2017-04-02T08:21:10.501Z,16
2017-04-02T08:22:20.748Z,24
2017-04-02T08:23:31.017Z,20
2017-04-02T08:24:40.947Z,20
2017-04-02T08:25:50.872Z,32
2017-04-02T08:27:01.117Z,28
2017-04-02T08:28:10.435Z,20
2017-04-02T08:29:20.364Z,16
2017-04-02T08:30:30.294Z,16
2017-04-02T08:31:40.242Z,12
2017-04-02T08:32:50.180Z,16
2017-04-02T08:33:59.794Z,28
2017-04-02T08:35:09.414Z,36
2017-04-02T08:36:19.366Z,12
2017-04-02T08:37:29.608Z,8
2017-04-02T08:38:39.531Z,12
2017-04-02T08:39:49.465Z,12
2017-04-02T08:40:59.396Z,12
2017-04-02T08:42:09.013Z,32
2017-04-02T08:43:18.946Z,32
2017-04-02T08:44:29.191Z,16
2017-04-02T08:45:39.447Z,36
2017-04-02T08:46:49.374Z,20
2017-04-02T08:47:59.301Z,16
2017-04-02T08:49:08.612Z,16
2017-04-02T08:50:18.541Z,28
2017-04-02T08:51:28.787Z,36
2017-04-02T08:52:39.037Z,32
2017-04-02T08:53:49.277Z,20
2017-04-02T08:54:58.580Z,16
2017-04-02T08:56:08.859Z,20
2017-04-02T08:57:18.473Z,12
2017-04-02T08:58:28.402Z,12
2017-04-02T08:59:38.019Z,8
2017-04-02T09:00:47.954Z,12
2017-04-02T09:01:58.205Z,16
2017-04-02T09:03:08.135Z,20
2017-04-02T09:04:17.746Z,32
2017-04-02T09:05:27.361Z,32
2017-04-02T09:06:37.602Z,32
2017-04-02T09:07:47.534Z,32
2017-04-02T09:08:56.525Z,28
2017-04-02T09:10:06.768Z,20
2017-04-02T09:11:16.696Z,20
2017-04-02T09:12:26.640Z,16
2017-04-02T09:13:35.942Z,20
2017-04-02T09:14:46.192Z,16
2017-04-02T09:15:56.436Z,24
2017-04-02T09:17:06.052Z,24
2017-04-02T09:18:15.979Z,20
2017-04-02T09:19:25.910Z,32
2017-04-02T09:20:36.159Z,32
2017-04-02T09:21:46.090Z,28
2017-04-02T09:22:56.346Z,24
2017-04-02T09:24:06.286Z,20
2017-04-02T09:25:15.899Z,16
2017-04-02T09:26:25.829Z,16
2017-04-02T09:27:36.071Z,24
2017-04-02T09:28:45.996Z,20
2017-04-02T09:29:56.241Z,32
2017-04-02T09:31:06.488Z,24
2017-04-02T09:32:16.409Z,28
2017-04-02T09:33:26.656Z,16
2017-04-02T09:34:36.277Z,16
2017-04-02T09:35:46.529Z,12
2017-04-02T09:36:56.776Z,12
2017-04-02T09:38:07.022Z,12
2017-04-02T09:39:16.951Z,12
2017-04-02T09:40:26.570Z,16
2017-04-02T09:41:36.499Z,16
2017-04-02T09:42:46.422Z,12
2017-04-02T09:43:56.343Z,16
2017-04-02T09:45:06.277Z,12
2017-04-02T09:46:16.532Z,12
2017-04-02T09:47:26.777Z,12
2017-04-02T09:48:36.704Z,12
2017-04-02T09:49:46.633Z,8
2017-04-02T09:50:56.873Z,8
2017-04-02T09:52:06.489Z,8
2017-04-02T09:53:16.731Z,8
2017-04-02T09:54:26.970Z,12
2017-04-02T09:55:37.206Z,12
2017-04-02T09:56:47.131Z,12
2017-04-02T09:57:57.375Z,12
2017-04-02T09:59:07.302Z,12
2017-04-02T10:00:17.544Z,8
2017-04-02T10:01:27.791Z,8
2017-04-02T10:02:37.718Z,8
2017-04-02T10:03:47.646Z,12
2017-04-02T10:04:57.572Z,12
2017-04-02T10:06:07.513Z,16
2017-04-02T10:07:17.442Z,16
2017-04-02T10:08:27.680Z,20
2017-04-02T10:09:37.609Z,20
2017-04-02T10:10:47.228Z,24
2017-04-02T10:11:56.852Z,20
2017-04-02T10:13:06.786Z,20
2017-04-02T10:14:17.023Z,16
2017-04-02T10:15:26.971Z,16
2017-04-02T10:16:37.222Z,16
2017-04-02T10:17:47.505Z,16
2017-04-02T10:18:57.130Z,16
2017-04-02T10:20:07.058Z,20
2017-04-02T10:21:16.371Z,20
2017-04-02T10:22:25.984Z,16
2017-04-02T10:23:36.223Z,12
2017-04-02T10:24:46.151Z,16
2017-04-02T10:25:56.401Z,20
2017-04-02T10:27:06.646Z,20
2017-04-02T10:28:16.578Z,16
2017-04-02T10:29:26.508Z,16
2017-04-02T10:30:36.442Z,12
2017-04-02T10:31:46.058Z,12
2017-04-02T10:32:55.984Z,8
2017-04-02T10:34:05.609Z,16
2017-04-02T10:35:15.543Z,20
2017-04-02T10:36:25.464Z,20
2017-04-02T10:37:35.409Z,20
2017-04-02T10:38:44.714Z,20
2017-04-02T10:39:54.994Z,12
2017-04-02T10:41:05.234Z,12
2017-04-02T10:42:15.169Z,12
2017-04-02T10:43:25.105Z,12
2017-04-02T10:44:35.036Z,8
2017-04-02T10:45:44.967Z,12
2017-04-02T10:46:54.905Z,12
2017-04-02T10:48:04.528Z,12
2017-04-02T10:49:14.465Z,12
2017-04-02T10:50:24.389Z,12
2017-04-02T10:51:33.690Z,20
2017-04-02T10:52:43.942Z,16
2017-04-02T10:53:54.175Z,16
2017-04-02T10:55:04.407Z,12
2017-04-02T10:56:14.341Z,12
2017-04-02T10:57:24.586Z,12
2017-04-02T10:58:34.511Z,12
2017-04-02T10:59:44.753Z,12
2017-04-02T11:00:54.367Z,8
2017-04-02T11:02:04.348Z,8
2017-04-02T11:03:14.274Z,8
2017-04-02T11:04:24.512Z,8
2017-04-02T11:05:33.819Z,4
2017-04-02T11:06:43.744Z,4
2017-04-02T11:07:53.988Z,8
2017-04-02T11:09:04.229Z,4
2017-04-02T11:10:14.474Z,4
2017-04-02T11:11:24.439Z,4
2017-04-02T11:12:34.056Z,4
2017-04-02T11:13:43.984Z,4
2017-04-02T11:14:54.218Z,4
2017-04-02T11:16:04.459Z,4
2017-04-02T11:17:14.397Z,4
2017-04-02T11:18:24.023Z,4
2017-04-02T11:19:33.955Z,4
2017-04-02T11:20:43.253Z,4
2017-04-02T11:21:52.891Z,8
2017-04-02T11:23:02.823Z,8
2017-04-02T11:24:13.069Z,12
2017-04-02T11:25:23.320Z,12
2017-04-02T11:26:33.286Z,12
2017-04-02T11:27:42.903Z,12
2017-04-02T11:28:52.823Z,16
2017-04-02T11:30:03.074Z,16
2017-04-02T11:31:13.022Z,16
2017-04-02T11:32:23.258Z,16
2017-04-02T11:33:33.208Z,20
2017-04-02T11:34:43.143Z,20
2017-04-02T11:35:53.387Z,16
2017-04-02T11:37:03.319Z,16
2017-04-02T11:38:13.559Z,16
2017-04-02T11:39:23.180Z,16
2017-04-02T11:40:33.430Z,12
2017-04-02T11:41:43.668Z,16
2017-04-02T11:42:53.901Z,20
2017-04-02T11:44:04.143Z,24
2017-04-02T11:45:13.770Z,24
2017-04-02T11:46:24.029Z,20
2017-04-02T11:47:33.967Z,16
2017-04-02T11:48:44.204Z,20
2017-04-02T11:49:54.128Z,20
2017-04-02T11:51:04.050Z,16
2017-04-02T11:52:14.296Z,12
2017-04-02T11:53:24.537Z,12
2017-04-02T11:54:34.152Z,12
2017-04-02T11:55:43.773Z,12
2017-04-02T11:56:54.013Z,12
2017-04-02T11:58:04.256Z,12
2017-04-02T11:59:14.506Z,12
2017-04-02T12:00:24.759Z,8
2017-04-02T12:01:35.000Z,12
2017-04-02T12:02:45.240Z,16
2017-04-02T12:03:55.165Z,8
2017-04-02T12:05:05.404Z,12
2017-04-02T12:06:15.648Z,8
2017-04-02T12:07:25.271Z,12
2017-04-02T12:08:35.196Z,8
2017-04-02T12:09:45.127Z,8
2017-04-02T12:10:55.054Z,8
2017-04-02T12:12:04.985Z,12
2017-04-02T12:13:15.222Z,8
2017-04-02T12:14:25.465Z,8
2017-04-02T12:15:35.073Z,16
2017-04-02T12:16:45.316Z,16
2017-04-02T12:17:55.556Z,16
2017-04-02T12:19:05.804Z,16
2017-04-02T12:20:15.731Z,16
2017-04-02T12:21:25.995Z,12
2017-04-02T12:22:35.938Z,12
2017-04-02T12:23:45.575Z,12
2017-04-02T12:24:55.516Z,16
2017-04-02T12:26:05.757Z,16
2017-04-02T12:27:15.994Z,16
2017-04-02T12:28:25.605Z,12
2017-04-02T12:29:35.534Z,16
2017-04-02T12:30:45.775Z,12
2017-04-02T12:31:55.707Z,12
2017-04-02T12:33:05.638Z,8
2017-04-02T12:34:15.256Z,16
2017-04-02T12:35:25.510Z,16
2017-04-02T12:36:35.131Z,16
2017-04-02T12:37:45.375Z,16
2017-04-02T12:38:55.620Z,16
2017-04-02T12:40:05.547Z,16
2017-04-02T12:41:15.480Z,16
2017-04-02T12:42:25.414Z,16
2017-04-02T12:43:35.655Z,16
2017-04-02T12:44:45.597Z,16
2017-04-02T12:45:55.841Z,16
2017-04-02T12:47:06.079Z,20
2017-04-02T12:48:16.319Z,16
2017-04-02T12:49:26.251Z,16
2017-04-02T12:50:36.496Z,20
2017-04-02T12:51:46.738Z,16
2017-04-02T12:52:56.657Z,16
2017-04-02T12:54:06.588Z,20
2017-04-02T12:55:16.204Z,20
2017-04-02T12:56:26.142Z,20
2017-04-02T12:57:35.758Z,16
2017-04-02T12:58:45.994Z,16
2017-04-02T12:59:55.919Z,20
2017-04-02T13:01:05.540Z,20
2017-04-02T13:02:15.779Z,16
2017-04-02T13:03:26.014Z,16
2017-04-02T13:04:36.256Z,20
2017-04-02T13:05:46.184Z,20
2017-04-02T13:06:56.431Z,12
2017-04-02T13:08:06.056Z,16
2017-04-02T13:09:15.983Z,16
2017-04-02T13:10:25.605Z,12
2017-04-02T13:11:35.847Z,20
2017-04-02T13:12:45.461Z,16
2017-04-02T13:13:55.424Z,16
2017-04-02T13:15:05.668Z,20
2017-04-02T13:16:15.963Z,20
2017-04-02T13:17:25.586Z,20
2017-04-02T13:18:35.513Z,20
2017-04-02T13:19:45.788Z,20
2017-04-02T13:20:56.034Z,20
2017-04-02T13:22:05.334Z,20
2017-04-02T13:23:15.577Z,20
2017-04-02T13:24:25.820Z,16
2017-04-02T13:25:35.754Z,16
2017-04-02T13:26:45.999Z,16
2017-04-02T13:27:55.620Z,20
2017-04-02T13:29:05.856Z,20
2017-04-02T13:30:15.785Z,16
2017-04-02T13:31:26.029Z,16
2017-04-02T13:32:35.642Z,16
2017-04-02T13:33:45.925Z,16
2017-04-02T13:34:55.855Z,16
2017-04-02T13:36:06.099Z,20
2017-04-02T13:37:16.351Z,16
2017-04-02T13:38:26.275Z,16
2017-04-02T13:39:36.211Z,16
2017-04-02T13:40:46.455Z,16
2017-04-02T13:41:56.694Z,16
2017-04-02T13:43:06.940Z,16
2017-04-02T13:44:17.182Z,16
2017-04-02T13:45:26.797Z,16
2017-04-02T13:46:37.035Z,8
2017-04-02T13:47:46.955Z,8
2017-04-02T13:48:57.233Z,16
2017-04-02T13:50:07.165Z,16
2017-04-02T13:51:17.091Z,16
2017-04-02T13:52:26.706Z,20
2017-04-02T13:53:36.633Z,12
2017-04-02T13:54:46.884Z,8
2017-04-02T13:55:57.120Z,8
2017-04-02T13:57:07.360Z,8
2017-04-02T13:58:17.605Z,8
2017-04-02T13:59:27.846Z,4
2017-04-02T14:00:38.124Z,8
2017-04-02T14:01:48.063Z,8
2017-04-02T14:02:58.303Z,8
2017-04-02T14:04:08.552Z,8
2017-04-02T14:05:18.803Z,4
2017-04-02T14:06:29.048Z,8
2017-04-02T14:07:38.971Z,12
2017-04-02T14:08:48.906Z,16
2017-04-02T14:09:58.837Z,16
2017-04-02T14:11:09.091Z,16
2017-04-02T14:12:19.393Z,16
2017-04-02T14:13:29.051Z,16
2017-04-02T14:14:38.995Z,16
2017-04-02T14:15:48.616Z,16
2017-04-02T14:16:58.231Z,16
2017-04-02T14:18:08.470Z,16
2017-04-02T14:19:18.400Z,12
2017-04-02T14:20:28.640Z,16
2017-04-02T14:21:38.259Z,4
2017-04-02T14:22:47.876Z,16
2017-04-02T14:23:58.122Z,24
2017-04-02T14:25:07.739Z,16
2017-04-02T14:26:18.021Z,12
2017-04-02T14:27:28.268Z,16
2017-04-02T14:28:38.198Z,12
2017-04-02T14:29:48.128Z,8
2017-04-02T14:30:57.746Z,8
2017-04-02T14:32:07.721Z,16
2017-04-02T14:33:17.655Z,16
2017-04-02T14:34:27.581Z,12
2017-04-02T14:35:37.821Z,16
2017-04-02T14:36:47.754Z,8
2017-04-02T14:37:57.374Z,8
2017-04-02T14:39:07.015Z,8
2017-04-02T14:40:17.255Z,12
2017-04-02T14:41:27.182Z,12
2017-04-02T14:42:37.114Z,12
2017-04-02T14:43:46.725Z,12
2017-04-02T14:44:56.970Z,16
2017-04-02T14:46:07.213Z,4
2017-04-02T14:47:17.447Z,8
2017-04-02T14:48:27.375Z,12
2017-04-02T14:49:37.306Z,12
2017-04-02T14:50:46.920Z,20
2017-04-02T14:51:56.846Z,8
2017-04-02T14:53:06.772Z,12
2017-04-02T14:54:17.009Z,16
2017-04-02T14:55:26.939Z,12
2017-04-02T14:56:36.879Z,12
2017-04-02T14:57:46.814Z,12
2017-04-02T14:58:56.434Z,12
2017-04-02T15:00:06.369Z,12
2017-04-02T15:01:16.635Z,12
2017-04-02T15:02:26.580Z,12
2017-04-02T15:03:36.822Z,12
2017-04-02T15:04:47.062Z,8
2017-04-02T15:05:56.735Z,12
2017-04-02T15:07:06.981Z,12
2017-04-02T15:08:16.906Z,12
2017-04-02T15:09:27.143Z,12
2017-04-02T15:10:37.076Z,12
2017-04-02T15:11:47.012Z,12
2017-04-02T15:12:56.942Z,12
2017-04-02T15:14:06.875Z,12
2017-04-02T15:15:16.804Z,16
2017-04-02T15:16:27.049Z,16
2017-04-02T15:17:37.291Z,12
2017-04-02T15:18:46.910Z,12
2017-04-02T15:19:56.835Z,12
2017-04-02T15:21:06.760Z,12
2017-04-02T15:22:16.998Z,8
2017-04-02T15:23:26.638Z,12
2017-04-02T15:24:36.569Z,8
2017-04-02T15:25:46.817Z,12
2017-04-02T15:26:57.059Z,16
2017-04-02T15:28:07.296Z,12
2017-04-02T15:29:16.915Z,16
2017-04-02T15:30:26.846Z,16
2017-04-02T15:31:37.093Z,12
2017-04-02T15:32:46.721Z,16
2017-04-02T15:33:56.338Z,12
2017-04-02T15:35:06.263Z,12
2017-04-02T15:36:16.507Z,8
2017-04-02T15:37:26.751Z,8
2017-04-02T15:38:36.685Z,4
2017-04-02T15:39:46.929Z,8
2017-04-02T15:40:57.173Z,8
2017-04-02T15:42:07.098Z,8
2017-04-02T15:43:16.713Z,8
2017-04-02T15:44:26.644Z,12
2017-04-02T15:45:36.256Z,8
2017-04-02T15:46:46.497Z,8
2017-04-02T15:47:56.110Z,4
2017-04-02T15:49:06.351Z,4
2017-04-02T15:50:16.594Z,4
2017-04-02T15:51:26.556Z,8
2017-04-02T15:52:36.482Z,12
2017-04-02T15:53:46.095Z,8
2017-04-02T15:54:56.341Z,12
2017-04-02T15:56:06.587Z,12
2017-04-02T15:57:16.836Z,8
2017-04-02T15:58:26.450Z,12
2017-04-02T15:59:36.382Z,8
2017-04-02T16:00:46.305Z,8
2017-04-02T16:01:56.541Z,8
2017-04-02T16:03:06.476Z,8
2017-04-02T16:04:16.718Z,4
2017-04-02T16:05:26.645Z,8
2017-04-02T16:06:36.573Z,4
2017-04-02T16:07:46.189Z,4
2017-04-02T16:08:56.121Z,4
2017-04-02T16:10:06.359Z,8
2017-04-02T16:11:16.288Z,4
2017-04-02T16:12:25.913Z,4
2017-04-02T16:13:35.841Z,4
2017-04-02T16:14:46.084Z,4
2017-04-02T16:15:55.704Z,4
2017-04-02T16:17:05.634Z,4
2017-04-02T16:18:15.252Z,4
2017-04-02T16:19:25.495Z,4
2017-04-02T16:20:35.423Z,4
2017-04-02T16:21:45.663Z,4
2017-04-02T16:22:55.280Z,4
2017-04-02T16:24:05.530Z,4
2017-04-02T16:25:15.834Z,4
2017-04-02T16:26:26.076Z,0
2017-04-02T16:27:36.021Z,4
2017-04-02T16:28:46.267Z,0
2017-04-02T16:29:56.200Z,4
2017-04-02T16:31:06.445Z,4
2017-04-02T16:32:16.417Z,4
2017-04-02T16:33:26.710Z,4
2017-04-02T16:34:36.642Z,4
2017-04-02T16:35:46.569Z,4
2017-04-02T16:36:56.809Z,4
2017-04-02T16:38:07.089Z,4
2017-04-02T16:39:17.326Z,4
2017-04-02T16:40:27.564Z,4
2017-04-02T16:41:37.808Z,4
2017-04-02T16:42:47.731Z,4
2017-04-02T16:43:57.971Z,0
2017-04-02T16:45:07.588Z,4
2017-04-02T16:46:17.833Z,4
2017-04-02T16:47:28.087Z,4
2017-04-02T16:48:38.018Z,4
2017-04-02T16:49:48.264Z,4
2017-04-02T16:50:58.194Z,4
2017-04-02T16:52:08.854Z,4
2017-04-02T16:53:50.869Z,0
2017-04-02T16:55:01.108Z,0
2017-04-02T16:56:11.041Z,0
2017-04-02T16:57:20.963Z,0
2017-04-02T16:58:30.577Z,0
2017-04-02T16:59:39.875Z,0